createdAt,value
2019-05-11T00:00:17.162Z,72.68
2019-05-11T00:02:47.977Z,72.77
2019-05-11T00:05:18.820Z,72.52
2019-05-11T00:07:49.611Z,73.84
2019-05-11T00:10:23.404Z,73.63
2019-05-11T00:12:53.141Z,72.55
2019-05-11T00:15:23.951Z,72.14
2019-05-11T00:17:55.099Z,71.73
2019-05-11T00:20:25.924Z,71.09
2019-05-11T00:22:56.738Z,71.60
2019-05-11T00:25:27.558Z,72.25
2019-05-11T00:27:58.367Z,72.33
2019-05-11T00:30:29.178Z,71.76
2019-05-11T00:32:59.979Z,71.97
2019-05-11T00:35:30.810Z,72.12
2019-05-11T00:38:01.631Z,71.60
2019-05-11T00:40:32.455Z,72.10
2019-05-11T00:43:03.274Z,72.93
2019-05-11T00:45:34.081Z,72.44
2019-05-11T00:48:04.880Z,74.15
2019-05-11T00:50:39.100Z,74.60
2019-05-11T00:53:08.404Z,74.73
2019-05-11T00:55:39.212Z,74.55
2019-05-11T00:58:10.009Z,73.94
2019-05-11T01:00:40.838Z,73.91
2019-05-11T01:03:11.643Z,74.93
2019-05-11T01:05:42.448Z,74.97
2019-05-11T01:08:13.255Z,74.70
2019-05-11T01:10:44.073Z,74.38
2019-05-11T01:13:14.885Z,74.02
2019-05-11T01:15:45.727Z,75.36
2019-05-11T01:18:16.531Z,73.57
2019-05-11T01:20:47.344Z,73.33
2019-05-11T01:23:18.146Z,72.64
2019-05-11T01:25:48.983Z,72.60
2019-05-11T01:28:19.784Z,73.18
2019-05-11T01:30:50.601Z,72.87
2019-05-11T01:33:21.398Z,72.86
2019-05-11T01:35:52.208Z,72.14
2019-05-11T01:38:23.028Z,72.20
2019-05-11T01:40:58.842Z,71.02
2019-05-11T01:43:26.578Z,70.66
2019-05-11T01:45:57.413Z,71.63
2019-05-11T01:48:28.228Z,71.73
2019-05-11T01:50:59.044Z,70.78
2019-05-11T01:53:29.859Z,70.78
2019-05-11T01:56:01.072Z,72.21
2019-05-11T01:58:31.832Z,72.29
2019-05-11T02:01:03.112Z,72.45
2019-05-11T02:03:33.878Z,72.83
2019-05-11T02:06:04.717Z,72.24
2019-05-11T02:08:35.454Z,72.16
2019-05-11T02:11:15.543Z,72.57
2019-05-11T02:13:38.964Z,71.89
2019-05-11T02:16:09.738Z,72.00
2019-05-11T02:18:40.503Z,71.87
2019-05-11T02:21:11.293Z,72.23
2019-05-11T02:23:42.081Z,72.11
2019-05-11T02:26:12.852Z,72.95
2019-05-11T02:28:44.120Z,73.59
2019-05-11T02:31:14.900Z,74.06
2019-05-11T02:33:45.663Z,74.24
2019-05-11T02:36:16.445Z,75.02
2019-05-11T02:38:47.214Z,74.85
2019-05-11T02:41:34.539Z,74.23
2019-05-11T02:43:50.786Z,74.97
2019-05-11T02:46:21.533Z,75.49
2019-05-11T02:48:52.324Z,75.79
2019-05-11T02:51:23.106Z,77.22
2019-05-11T02:53:53.882Z,76.23
2019-05-11T02:56:24.688Z,75.60
2019-05-11T02:58:55.534Z,76.64
2019-05-11T03:01:26.328Z,76.32
2019-05-11T03:03:57.354Z,76.76
2019-05-11T03:06:28.144Z,76.37
2019-05-11T03:08:58.904Z,77.31
2019-05-11T03:11:29.686Z,78.67
2019-05-11T03:14:00.454Z,79.22
2019-05-11T03:16:31.222Z,78.61
2019-05-11T03:19:02.016Z,77.60
2019-05-11T03:21:32.812Z,78.51
2019-05-11T03:24:03.665Z,77.96
2019-05-11T03:26:34.454Z,77.22
2019-05-11T03:29:05.257Z,77.01
2019-05-11T03:31:36.023Z,78.32
2019-05-11T03:34:06.799Z,78.72
2019-05-11T03:36:37.575Z,78.62
2019-05-11T03:39:08.351Z,78.66
2019-05-11T03:41:39.119Z,79.24
2019-05-11T03:44:09.911Z,78.68
2019-05-11T03:46:40.798Z,78.99
2019-05-11T03:49:11.602Z,78.32
2019-05-11T03:51:42.354Z,78.40
2019-05-11T03:54:13.125Z,78.82
2019-05-11T03:56:43.894Z,78.92
2019-05-11T03:59:14.701Z,79.51
2019-05-11T04:01:45.457Z,79.85
2019-05-11T04:04:16.821Z,79.38
2019-05-11T04:06:47.798Z,79.95
2019-05-11T04:09:18.563Z,78.91
2019-05-11T04:11:49.341Z,80.86
2019-05-11T04:14:20.141Z,81.65
2019-05-11T04:16:50.908Z,82.11
2019-05-11T04:19:21.699Z,82.61
2019-05-11T04:21:52.476Z,80.37
2019-05-11T04:24:23.250Z,81.37
2019-05-11T04:26:54.031Z,81.97
2019-05-11T04:29:24.797Z,82.47
2019-05-11T04:31:55.561Z,81.05
2019-05-11T04:34:26.341Z,81.17
2019-05-11T04:36:57.121Z,81.73
2019-05-11T04:39:27.895Z,81.75
2019-05-11T04:41:58.657Z,81.08
2019-05-11T04:44:29.573Z,82.23
2019-05-11T04:47:00.342Z,81.96
2019-05-11T04:49:31.119Z,80.33
2019-05-11T04:52:01.895Z,81.40
2019-05-11T04:54:32.664Z,81.57
2019-05-11T04:57:03.437Z,81.19
2019-05-11T04:59:34.217Z,80.80
2019-05-11T05:02:05.055Z,80.05
2019-05-11T05:04:35.834Z,80.74
2019-05-11T05:07:10.613Z,80.31
2019-05-11T05:09:42.385Z,79.76
2019-05-11T05:12:13.983Z,81.58
2019-05-11T05:14:44.675Z,81.71
2019-05-11T05:17:15.437Z,83.28
2019-05-11T05:19:46.213Z,82.25
2019-05-11T05:22:17.007Z,82.17
2019-05-11T05:24:48.011Z,81.43
2019-05-11T05:27:18.776Z,82.09
2019-05-11T05:29:49.545Z,82.12
2019-05-11T05:32:20.309Z,82.63
2019-05-11T05:34:51.084Z,82.05
2019-05-11T05:37:21.852Z,82.81
2019-05-11T05:39:52.631Z,82.66
2019-05-11T05:42:23.399Z,83.99
2019-05-11T05:44:54.168Z,83.26
2019-05-11T05:47:24.938Z,81.77
2019-05-11T05:49:55.703Z,81.91
2019-05-11T05:52:26.567Z,82.26
2019-05-11T05:54:57.347Z,83.53
2019-05-11T05:57:28.113Z,83.93
2019-05-11T05:59:58.887Z,82.80
2019-05-11T06:02:29.641Z,82.67
2019-05-11T06:05:00.423Z,83.07
2019-05-11T06:07:31.185Z,82.73
2019-05-11T06:10:04.670Z,83.52
2019-05-11T06:12:35.461Z,83.17
2019-05-11T06:15:06.533Z,81.93
2019-05-11T06:17:37.649Z,82.69
2019-05-11T06:20:09.072Z,82.45
2019-05-11T06:22:40.181Z,82.41
2019-05-11T06:25:11.086Z,83.31
2019-05-11T06:27:41.854Z,83.16
2019-05-11T06:30:12.924Z,83.92
2019-05-11T06:32:43.697Z,83.01
2019-05-11T06:35:14.671Z,83.37
2019-05-11T06:37:45.431Z,84.28
2019-05-11T06:40:16.410Z,84.38
2019-05-11T06:42:47.182Z,84.72
2019-05-11T06:45:17.960Z,84.69
2019-05-11T06:47:48.738Z,85.13
2019-05-11T06:50:19.954Z,85.22
2019-05-11T06:52:50.659Z,85.76
2019-05-11T06:55:21.426Z,85.75
2019-05-11T06:57:52.199Z,85.22
2019-05-11T07:00:23.258Z,85.45
2019-05-11T07:02:54.283Z,84.99
2019-05-11T07:05:25.067Z,84.65
2019-05-11T07:07:56.163Z,83.89
2019-05-11T07:10:26.954Z,82.69
2019-05-11T07:12:57.719Z,84.32
2019-05-11T07:15:28.499Z,85.65
2019-05-11T07:17:59.294Z,85.85
2019-05-11T07:20:30.048Z,84.30
2019-05-11T07:23:00.816Z,82.54
2019-05-11T07:25:31.890Z,82.23
2019-05-11T07:28:03.114Z,80.83
2019-05-11T07:30:33.869Z,82.95
2019-05-11T07:33:04.622Z,83.17
2019-05-11T07:35:35.402Z,83.13
2019-05-11T07:38:08.212Z,81.91
2019-05-11T07:40:38.842Z,80.55
2019-05-11T07:43:10.032Z,81.61
2019-05-11T07:45:40.889Z,82.16
2019-05-11T07:48:11.650Z,81.92
2019-05-11T07:50:42.458Z,80.61
2019-05-11T07:53:13.530Z,80.40
2019-05-11T07:55:44.316Z,80.82
2019-05-11T07:58:15.080Z,81.19
2019-05-11T08:00:45.866Z,80.71
2019-05-11T08:03:18.064Z,78.68
2019-05-11T08:05:49.021Z,79.24
2019-05-11T08:08:20.038Z,77.17
2019-05-11T08:10:51.416Z,77.67
2019-05-11T08:13:22.407Z,79.32
2019-05-11T08:15:53.497Z,80.04
2019-05-11T08:18:24.225Z,79.29
2019-05-11T08:20:55.030Z,77.60
2019-05-11T08:23:25.801Z,78.39
2019-05-11T08:25:58.122Z,75.20
2019-05-11T08:28:28.957Z,73.55
2019-05-11T08:30:59.751Z,73.62
2019-05-11T08:33:30.521Z,74.80
2019-05-11T08:36:01.399Z,71.60
2019-05-11T08:38:32.168Z,71.82
2019-05-11T08:41:02.972Z,70.94
2019-05-11T08:43:33.970Z,70.78
2019-05-11T08:46:04.729Z,71.87
2019-05-11T08:48:35.504Z,70.12
2019-05-11T08:51:08.404Z,68.28
2019-05-11T08:53:38.992Z,71.07
2019-05-11T08:56:13.171Z,68.18
2019-05-11T08:58:42.445Z,68.18
2019-05-11T09:01:13.206Z,68.82
2019-05-11T09:03:43.979Z,64.50
2019-05-11T09:06:14.742Z,66.09
2019-05-11T09:08:45.780Z,65.50
2019-05-11T09:11:18.822Z,63.60
2019-05-11T09:13:49.251Z,64.33
2019-05-11T09:16:20.012Z,63.70
2019-05-11T09:18:50.798Z,64.08
2019-05-11T09:21:21.583Z,63.29
2019-05-11T09:23:52.357Z,61.16
2019-05-11T09:26:23.124Z,61.38
2019-05-11T09:28:53.896Z,59.54
2019-05-11T09:31:24.681Z,59.69
2019-05-11T09:33:55.460Z,62.27
2019-05-11T09:36:28.354Z,62.61
2019-05-11T09:38:58.910Z,62.32
2019-05-11T09:41:29.678Z,62.37
2019-05-11T09:44:00.458Z,60.64
2019-05-11T09:46:31.226Z,57.70
2019-05-11T09:49:02.006Z,58.73
2019-05-11T09:51:32.767Z,59.70
2019-05-11T09:54:03.548Z,61.06
2019-05-11T09:56:34.307Z,60.52
2019-05-11T09:59:05.342Z,58.81
2019-05-11T10:01:37.837Z,56.10
2019-05-11T10:04:09.178Z,56.52
2019-05-11T10:06:40.167Z,59.37
2019-05-11T10:09:10.933Z,57.33
2019-05-11T10:11:41.704Z,57.56
2019-05-11T10:14:12.482Z,57.74
2019-05-11T10:16:43.262Z,59.32
2019-05-11T10:19:14.041Z,58.29
2019-05-11T10:21:44.794Z,58.67
2019-05-11T10:24:17.613Z,59.84
2019-05-11T10:26:48.797Z,58.19
2019-05-11T10:29:19.615Z,58.18
2019-05-11T10:31:50.373Z,58.08
2019-05-11T10:34:21.142Z,57.48
2019-05-11T10:36:51.902Z,55.71
2019-05-11T10:39:22.675Z,55.15
2019-05-11T10:41:53.443Z,53.96
2019-05-11T10:44:24.223Z,52.06
2019-05-11T10:46:55.001Z,51.33
2019-05-11T10:49:25.770Z,51.33
2019-05-11T10:51:58.632Z,53.05
2019-05-11T10:54:29.225Z,51.59
2019-05-11T10:56:59.986Z,51.20
2019-05-11T10:59:30.780Z,51.00
2019-05-11T11:02:01.550Z,48.77
2019-05-11T11:04:32.336Z,49.72
2019-05-11T11:07:03.117Z,51.34
2019-05-11T11:09:33.953Z,49.45
2019-05-11T11:12:04.732Z,50.76
2019-05-11T11:14:37.549Z,55.36
2019-05-11T11:17:08.824Z,57.76
2019-05-11T11:19:39.694Z,57.62
2019-05-11T11:22:35.470Z,57.34
2019-05-11T11:24:43.287Z,55.61
2019-05-11T11:27:14.041Z,57.51
2019-05-11T11:29:44.844Z,56.99
2019-05-11T11:32:15.613Z,59.14
2019-05-11T11:34:48.420Z,58.20
2019-05-11T11:37:19.109Z,58.55
2019-05-11T11:39:49.878Z,57.33
2019-05-11T11:42:20.652Z,58.57
2019-05-11T11:44:51.453Z,57.46
2019-05-11T11:47:22.277Z,57.46
2019-05-11T11:49:53.043Z,55.98
2019-05-11T11:52:23.825Z,58.30
2019-05-11T11:54:54.593Z,56.54
2019-05-11T11:57:25.365Z,56.16
2019-05-11T11:59:58.559Z,57.29
2019-05-11T12:02:28.838Z,58.72
2019-05-11T12:05:00.713Z,56.56
2019-05-11T12:07:31.496Z,55.22
2019-05-11T12:10:04.801Z,55.14
2019-05-11T12:12:35.578Z,55.50
2019-05-11T12:15:08.654Z,56.65
2019-05-11T12:17:39.466Z,57.30
2019-05-11T12:20:10.663Z,56.93
2019-05-11T12:22:41.429Z,55.75
2019-05-11T12:25:12.218Z,56.94
2019-05-11T12:27:42.994Z,57.29
2019-05-11T12:30:14.246Z,56.54
2019-05-11T12:32:48.723Z,56.26
2019-05-11T12:35:19.652Z,56.66
2019-05-11T12:37:50.417Z,58.42
2019-05-11T12:40:21.425Z,58.84
2019-05-11T12:42:52.209Z,57.93
2019-05-11T12:45:23.001Z,57.79
2019-05-11T12:47:53.780Z,57.43
2019-05-11T12:50:24.567Z,58.30
2019-05-11T12:52:56.655Z,56.05
2019-05-11T12:55:28.683Z,57.42
2019-05-11T12:57:59.698Z,56.38
2019-05-11T13:00:31.517Z,56.85
2019-05-11T13:03:02.455Z,56.46
2019-05-11T13:05:33.232Z,56.23
2019-05-11T13:08:04.014Z,56.30
2019-05-11T13:10:34.807Z,55.80
2019-05-11T13:13:08.907Z,58.77
2019-05-11T13:15:39.532Z,61.35
2019-05-11T13:18:10.372Z,64.05
2019-05-11T13:20:41.187Z,66.23
2019-05-11T13:23:11.989Z,72.94
2019-05-11T13:25:42.751Z,73.15
2019-05-11T13:28:13.525Z,72.55
2019-05-11T13:30:44.298Z,73.00
2019-05-11T13:33:15.081Z,75.38
2019-05-11T13:35:48.065Z,76.52
2019-05-11T13:38:18.528Z,74.96
2019-05-11T13:40:49.289Z,76.35
2019-05-11T13:43:20.816Z,79.90
2019-05-11T13:45:51.609Z,79.38
2019-05-11T13:48:22.396Z,75.76
2019-05-11T13:50:53.188Z,69.55
2019-05-11T13:53:23.982Z,72.16
2019-05-11T13:55:54.745Z,71.04
2019-05-11T13:58:27.633Z,74.53
2019-05-11T14:00:58.637Z,74.03
2019-05-11T14:03:29.506Z,74.57
2019-05-11T14:06:00.282Z,72.39
2019-05-11T14:08:31.059Z,72.68
2019-05-11T14:11:01.832Z,69.29
2019-05-11T14:13:32.607Z,71.75
2019-05-11T14:16:03.388Z,67.26
2019-05-11T14:18:34.205Z,71.27
2019-05-11T14:21:04.973Z,69.73
2019-05-11T14:23:35.755Z,69.61
2019-05-11T14:26:08.339Z,70.27
2019-05-11T14:28:39.252Z,70.08
2019-05-11T14:31:10.025Z,72.31
2019-05-11T14:33:41.012Z,73.76
2019-05-11T14:36:11.793Z,76.26
2019-05-11T14:38:42.599Z,77.00
2019-05-11T14:41:13.355Z,76.89
2019-05-11T14:43:44.163Z,77.12
2019-05-11T14:46:14.919Z,77.98
2019-05-11T14:48:47.876Z,78.24
2019-05-11T14:51:18.379Z,78.42
2019-05-11T14:53:49.157Z,78.26
2019-05-11T14:56:19.951Z,74.63
2019-05-11T14:58:50.734Z,74.52
2019-05-11T15:01:21.520Z,77.15
2019-05-11T15:03:52.295Z,78.80
2019-05-11T15:06:23.056Z,76.96
2019-05-11T15:12:28.730Z,79.40
2019-05-11T15:14:59.677Z,80.97
2019-05-11T15:17:31.508Z,79.21
2019-05-11T15:20:04.481Z,78.56
2019-05-11T15:22:37.354Z,79.10
2019-05-11T15:25:12.571Z,78.84
2019-05-11T15:27:43.356Z,79.17
2019-05-11T15:30:14.788Z,80.12
2019-05-11T15:32:47.891Z,81.63
2019-05-11T15:35:19.094Z,80.69
2019-05-11T15:37:50.099Z,79.55
2019-05-11T15:40:22.476Z,81.10
2019-05-11T15:42:53.286Z,80.25
2019-05-11T15:45:24.067Z,80.56
2019-05-11T15:47:54.915Z,81.69
2019-05-11T15:50:25.715Z,82.23
2019-05-11T15:52:58.141Z,82.07
2019-05-11T15:55:29.782Z,80.75
2019-05-11T15:58:00.563Z,79.13
2019-05-11T16:00:31.340Z,79.28
2019-05-11T16:03:02.162Z,79.95
2019-05-11T16:05:32.940Z,80.49
2019-05-11T16:08:03.717Z,80.72
2019-05-11T16:10:35.552Z,80.66
2019-05-11T16:13:08.936Z,79.81
2019-05-11T16:15:39.013Z,79.55
2019-05-11T16:18:09.784Z,80.57
2019-05-11T16:20:40.553Z,80.37
2019-05-11T16:23:11.359Z,81.31
2019-05-11T16:25:42.128Z,80.28
2019-05-11T16:28:12.907Z,79.72
2019-05-11T16:30:44.469Z,80.07
2019-05-11T16:33:17.801Z,81.21
2019-05-11T16:35:48.973Z,78.24
2019-05-11T16:38:20.007Z,80.17
2019-05-11T16:40:50.801Z,79.77
2019-05-11T16:43:21.586Z,78.66
2019-05-11T16:45:52.804Z,75.18
2019-05-11T16:48:23.737Z,75.89
2019-05-11T16:50:54.498Z,76.61
2019-05-11T16:53:25.288Z,77.48
2019-05-11T16:55:57.749Z,74.91
2019-05-11T16:58:28.654Z,76.43
2019-05-11T17:00:59.439Z,79.42
2019-05-11T17:03:30.204Z,77.79
2019-05-11T17:06:00.976Z,78.25
2019-05-11T17:08:31.772Z,79.66
2019-05-11T17:11:02.553Z,81.19
2019-05-11T17:13:33.335Z,81.27
2019-05-11T17:16:04.190Z,76.65
2019-05-11T17:18:34.969Z,78.42
2019-05-11T17:21:07.828Z,77.54
2019-05-11T17:23:38.662Z,77.93
2019-05-11T17:26:09.453Z,78.16
2019-05-11T17:28:40.261Z,76.59
2019-05-11T17:31:11.022Z,72.58
2019-05-11T17:33:41.829Z,73.85
2019-05-11T17:36:12.599Z,75.94
2019-05-11T17:38:43.377Z,76.73
2019-05-11T17:41:14.198Z,75.42
2019-05-11T17:43:44.975Z,75.39
2019-05-11T17:46:17.789Z,75.23
2019-05-11T17:48:48.421Z,74.32
2019-05-11T17:51:22.559Z,72.99
2019-05-11T17:53:51.908Z,72.28
2019-05-11T17:56:22.687Z,72.33
2019-05-11T17:58:53.455Z,72.57
2019-05-11T18:01:24.273Z,74.01
2019-05-11T18:03:55.034Z,74.53
2019-05-11T18:06:25.812Z,75.90
2019-05-11T18:08:58.475Z,77.13
2019-05-11T18:11:29.917Z,74.79
2019-05-11T18:14:00.998Z,78.64
2019-05-11T18:16:31.802Z,76.01
2019-05-11T18:19:02.571Z,75.15
2019-05-11T18:21:33.363Z,76.85
2019-05-11T18:24:04.130Z,77.53
2019-05-11T18:26:35.003Z,79.39
2019-05-11T18:29:05.770Z,78.88
2019-05-11T18:31:38.359Z,79.85
2019-05-11T18:34:09.238Z,80.53
2019-05-11T18:36:40.036Z,78.97
2019-05-11T18:39:10.881Z,78.86
2019-05-11T18:41:42.209Z,79.48
2019-05-11T18:44:13.030Z,79.48
2019-05-11T18:46:43.824Z,77.36
2019-05-11T18:49:14.634Z,78.08
2019-05-11T18:51:45.415Z,79.53
2019-05-11T18:54:18.939Z,79.25
2019-05-11T18:56:49.005Z,79.19
2019-05-11T18:59:19.775Z,79.31
2019-05-11T19:01:50.540Z,78.77
2019-05-11T19:04:21.384Z,79.73
2019-05-11T19:06:52.179Z,80.69
2019-05-11T19:09:22.972Z,78.08
2019-05-11T19:11:53.860Z,79.77
2019-05-11T19:14:24.638Z,80.64
2019-05-11T19:16:55.501Z,78.99
2019-05-11T19:19:26.286Z,78.67
2019-05-11T19:21:58.655Z,78.63
2019-05-11T19:24:29.636Z,79.24
2019-05-11T19:27:01.081Z,100.00
2019-05-11T19:29:31.872Z,79.18
2019-05-11T19:32:02.679Z,100.00
2019-05-11T19:34:47.925Z,75.81
2019-05-11T19:38:21.096Z,75.81
2019-05-11T19:42:01.478Z,100.00
2019-05-11T19:45:32.559Z,75.81
2019-05-11T19:48:03.726Z,100.00
2019-05-11T19:51:04.638Z,75.81
2019-05-11T19:53:38.621Z,75.81
2019-05-11T19:58:29.393Z,75.81
2019-05-11T20:01:04.004Z,75.81
2019-05-11T20:03:38.196Z,75.81
2019-05-11T20:06:09.057Z,100.00
2019-05-11T20:08:41.377Z,75.81
2019-05-11T20:11:27.924Z,75.81
2019-05-11T20:13:59.097Z,75.81
2019-05-11T20:16:32.084Z,100.00
2019-05-11T20:19:02.973Z,77.72
2019-05-11T20:21:33.761Z,74.31
2019-05-11T20:24:04.526Z,78.26
2019-05-11T20:26:37.705Z,79.51
2019-05-11T20:29:08.399Z,80.17
2019-05-11T20:31:39.158Z,81.51
2019-05-11T20:34:21.868Z,82.21
2019-05-11T20:37:18.198Z,82.21
2019-05-11T20:40:40.936Z,82.21
2019-05-11T20:43:11.763Z,82.21
2019-05-11T20:46:52.620Z,82.39
2019-05-11T20:49:23.396Z,82.39
2019-05-11T20:51:54.200Z,81.65
2019-05-11T20:54:24.969Z,81.11
2019-05-11T20:56:58.252Z,81.96
2019-05-11T20:59:29.118Z,81.83
2019-05-11T21:02:05.369Z,83.12
2019-05-11T21:04:38.482Z,82.52
2019-05-11T21:07:08.845Z,82.35
2019-05-11T21:09:39.592Z,81.97
2019-05-11T21:12:10.388Z,82.12
2019-05-11T21:14:41.252Z,82.10
2019-05-11T21:17:12.032Z,81.90
2019-05-11T21:19:42.893Z,82.46
2019-05-11T21:22:13.654Z,81.30
2019-05-11T21:24:44.423Z,80.71
2019-05-11T21:27:15.223Z,80.81
2019-05-11T21:29:45.996Z,82.10
2019-05-11T21:32:17.986Z,82.51
2019-05-11T21:34:49.056Z,81.13
2019-05-11T21:37:19.856Z,80.16
2019-05-11T21:39:50.639Z,80.68
2019-05-11T21:42:21.416Z,81.11
2019-05-11T21:44:52.189Z,80.55
2019-05-11T21:47:22.967Z,78.92
2019-05-11T21:49:53.736Z,77.35
2019-05-11T21:52:24.549Z,77.89
2019-05-11T21:54:55.345Z,77.46
2019-05-11T21:57:27.877Z,77.47
2019-05-11T22:00:50.676Z,79.21
2019-05-11T22:07:07.824Z,79.21
2019-05-11T22:10:31.222Z,100.00
2019-05-11T22:13:22.505Z,100.00
2019-05-11T22:15:53.900Z,100.00
2019-05-11T22:18:30.804Z,100.00
2019-05-11T22:20:58.587Z,100.00
2019-05-11T22:23:29.373Z,79.21
2019-05-11T22:26:00.137Z,80.30
2019-05-11T22:28:31.042Z,81.78
2019-05-11T22:31:01.889Z,100.00
2019-05-11T22:33:35.335Z,100.00
2019-05-11T22:36:06.594Z,100.00
2019-05-11T22:38:38.723Z,81.12
2019-05-11T22:41:09.583Z,100.00
2019-05-11T22:43:40.442Z,82.37
2019-05-11T22:46:11.398Z,100.00
2019-05-11T22:48:42.247Z,82.37
2019-05-11T22:51:13.024Z,82.37
2019-05-11T22:53:47.416Z,81.31
2019-05-11T22:56:17.526Z,78.19
2019-05-11T22:58:50.000Z,80.51
2019-05-11T23:01:20.968Z,81.09
2019-05-11T23:03:51.766Z,81.10
2019-05-11T23:06:22.531Z,79.63
2019-05-11T23:08:54.167Z,76.78
2019-05-11T23:11:25.301Z,79.03
2019-05-11T23:13:56.075Z,79.89
2019-05-11T23:16:28.650Z,78.36
2019-05-11T23:18:59.524Z,79.28
2019-05-11T23:21:31.360Z,80.03
2019-05-11T23:24:02.135Z,79.63
2019-05-11T23:26:32.907Z,79.15
2019-05-11T23:29:03.703Z,78.35
2019-05-11T23:31:34.463Z,77.64
2019-05-11T23:34:05.247Z,75.49
2019-05-11T23:36:38.427Z,77.63
2019-05-11T23:39:09.311Z,77.06
2019-05-11T23:41:40.125Z,77.82
2019-05-11T23:44:10.918Z,75.92
2019-05-11T23:46:41.749Z,76.97
2019-05-11T23:49:12.570Z,78.29
2019-05-11T23:51:43.362Z,79.42
2019-05-11T23:54:14.159Z,79.77
2019-05-11T23:56:44.920Z,79.15
2019-05-11T23:59:16.060Z,80.36
